createdAt,value
2022-11-05T00:01:47.368Z,11.80
2022-11-05T00:04:32.821Z,11.80
2022-11-05T00:07:25.897Z,11.70
2022-11-05T00:10:00.181Z,11.60
2022-11-05T00:12:45.661Z,11.60
2022-11-05T00:15:31.041Z,11.60
2022-11-05T00:17:59.166Z,11.50
2022-11-05T00:20:27.012Z,11.50
2022-11-05T00:23:20.172Z,11.40
2022-11-05T00:25:55.700Z,11.40
2022-11-05T00:28:23.812Z,11.30
2022-11-05T00:30:51.959Z,11.30
2022-11-05T00:33:20.621Z,11.30
2022-11-05T00:35:48.500Z,11.20
2022-11-05T00:38:17.673Z,11.20
2022-11-05T00:40:46.118Z,11.20
2022-11-05T00:43:31.647Z,11.10
2022-11-05T00:45:59.493Z,11.00
2022-11-05T00:48:44.987Z,11.00
2022-11-05T00:51:12.816Z,10.90
2022-11-05T00:53:42.115Z,10.90
2022-11-05T00:56:09.998Z,10.80
2022-11-05T00:58:37.872Z,10.80
2022-11-05T01:01:06.973Z,10.80
2022-11-05T01:03:37.226Z,10.80
2022-11-05T01:06:09.777Z,10.80
2022-11-05T01:08:38.174Z,10.70
2022-11-05T01:11:12.265Z,10.70
2022-11-05T01:13:41.057Z,10.60
2022-11-05T01:16:10.565Z,10.50
2022-11-05T01:18:39.387Z,10.50
2022-11-05T01:21:15.714Z,10.50
2022-11-05T01:23:43.822Z,10.40
2022-11-05T01:26:13.046Z,10.50
2022-11-05T01:28:41.118Z,10.50
2022-11-05T01:31:09.041Z,10.50
2022-11-05T01:33:36.902Z,10.50
2022-11-05T01:36:06.153Z,10.50
2022-11-05T01:38:33.988Z,10.50
2022-11-05T01:41:01.805Z,10.50
2022-11-05T01:43:47.870Z,10.50
2022-11-05T01:46:17.116Z,10.50
2022-11-05T01:48:45.130Z,10.50
2022-11-05T01:51:16.197Z,10.50
2022-11-05T01:53:46.633Z,10.50
2022-11-05T01:56:19.461Z,10.40
2022-11-05T01:58:54.171Z,10.30
2022-11-05T02:01:22.132Z,10.20
2022-11-05T02:03:53.362Z,10.20
2022-11-05T02:06:21.837Z,10.20
2022-11-05T02:08:57.828Z,10.30
2022-11-05T02:11:26.070Z,10.30
2022-11-05T02:13:55.270Z,10.20
2022-11-05T02:16:36.258Z,10.20
2022-11-05T02:19:28.503Z,10.20
2022-11-05T02:22:33.609Z,10.20
2022-11-05T02:25:24.446Z,10.20
2022-11-05T02:28:20.846Z,10.10
2022-11-05T02:30:55.086Z,10.00
2022-11-05T02:33:42.708Z,10.00
2022-11-05T02:36:29.006Z,10.00
2022-11-05T02:39:06.750Z,10.00
2022-11-05T02:41:40.782Z,10.10
2022-11-05T02:44:18.364Z,10.20
2022-11-05T02:46:54.401Z,10.20
2022-11-05T02:49:32.698Z,10.20
2022-11-05T02:52:04.846Z,10.30
2022-11-05T02:54:37.167Z,10.30
2022-11-05T02:57:05.795Z,10.40
2022-11-05T02:59:33.694Z,10.40
2022-11-05T03:02:04.552Z,10.40
2022-11-05T03:04:33.157Z,10.50
2022-11-05T03:07:20.398Z,10.50
2022-11-05T03:10:14.577Z,10.50
2022-11-05T03:12:51.529Z,10.50
2022-11-05T03:15:29.701Z,10.60
2022-11-05T03:18:06.983Z,10.60
2022-11-05T03:20:38.561Z,10.60
2022-11-05T03:23:13.629Z,10.40
2022-11-05T03:25:47.814Z,10.30
2022-11-05T03:28:18.130Z,10.20
2022-11-05T03:30:46.870Z,10.10
2022-11-05T03:33:20.348Z,10.00
2022-11-05T03:35:52.170Z,10.00
2022-11-05T03:38:25.256Z,10.00
2022-11-05T03:40:55.991Z,10.10
2022-11-05T03:43:28.738Z,10.10
2022-11-05T03:46:01.897Z,10.20
2022-11-05T03:48:32.820Z,10.20
2022-11-05T03:51:05.573Z,10.30
2022-11-05T03:53:37.396Z,10.30
2022-11-05T03:56:08.801Z,10.30
2022-11-05T03:58:37.910Z,10.30
2022-11-05T04:01:06.097Z,10.30
2022-11-05T04:03:36.768Z,10.30
2022-11-05T04:06:22.873Z,10.40
2022-11-05T04:09:08.251Z,10.40
2022-11-05T04:11:53.682Z,10.40
2022-11-05T04:14:21.766Z,10.40
2022-11-05T04:17:06.999Z,10.40
2022-11-05T04:19:54.444Z,10.30
2022-11-05T04:22:39.423Z,10.30
2022-11-05T04:25:07.851Z,10.30
2022-11-05T04:27:35.790Z,10.30
2022-11-05T04:30:18.660Z,10.30
2022-11-05T04:33:01.132Z,10.30
2022-11-05T04:35:31.767Z,10.30
2022-11-05T04:38:00.028Z,10.30
2022-11-05T04:40:28.471Z,10.30
2022-11-05T04:42:57.297Z,10.30
2022-11-05T04:45:26.651Z,10.20
2022-11-05T04:47:54.558Z,10.20
2022-11-05T04:50:22.475Z,10.20
2022-11-05T04:52:51.696Z,10.20
2022-11-05T04:55:19.871Z,10.20
2022-11-05T04:57:50.095Z,10.10
2022-11-05T05:00:19.437Z,10.20
2022-11-05T05:02:47.891Z,10.20
2022-11-05T05:05:16.161Z,10.20
2022-11-05T05:07:44.162Z,10.20
2022-11-05T05:10:13.775Z,10.20
2022-11-05T05:12:41.591Z,10.20
2022-11-05T05:15:09.810Z,10.20
2022-11-05T05:17:37.638Z,10.20
2022-11-05T05:20:23.638Z,10.20
2022-11-05T05:22:54.506Z,10.20
2022-11-05T05:25:24.320Z,10.20
2022-11-05T05:27:52.245Z,10.20
2022-11-05T05:30:20.100Z,10.20
2022-11-05T05:32:47.950Z,10.20
2022-11-05T05:35:16.129Z,10.10
2022-11-05T05:37:44.456Z,10.10
2022-11-05T05:40:12.845Z,10.10
2022-11-05T05:42:43.494Z,10.00
2022-11-05T05:45:12.957Z,10.00
2022-11-05T05:47:40.934Z,10.00
2022-11-05T05:50:09.350Z,10.00
2022-11-05T05:52:37.273Z,10.00
2022-11-05T05:55:05.589Z,9.90
2022-11-05T05:57:33.483Z,9.90
2022-11-05T06:00:02.737Z,9.90
2022-11-05T06:02:31.715Z,9.80
2022-11-05T06:04:59.660Z,9.80
2022-11-05T06:07:27.487Z,9.70
2022-11-05T06:09:55.307Z,9.70
2022-11-05T06:12:23.394Z,9.70
2022-11-05T06:14:51.224Z,9.70
2022-11-05T06:17:20.391Z,9.70
2022-11-05T06:19:48.406Z,9.70
2022-11-05T06:22:16.418Z,9.70
2022-11-05T06:24:44.249Z,9.70
2022-11-05T06:27:12.090Z,9.60
2022-11-05T06:29:39.942Z,9.60
2022-11-05T06:32:07.800Z,9.60
2022-11-05T06:34:37.721Z,9.60
2022-11-05T06:37:05.563Z,9.60
2022-11-05T06:39:33.910Z,9.60
2022-11-05T06:42:18.045Z,9.60
2022-11-05T06:44:46.551Z,9.60
2022-11-05T06:47:14.793Z,9.60
2022-11-05T06:49:43.959Z,9.60
2022-11-05T06:52:11.895Z,9.60
2022-11-05T06:54:39.942Z,9.50
2022-11-05T06:57:09.485Z,9.50
2022-11-05T06:59:37.405Z,9.50
2022-11-05T07:02:05.591Z,9.50
2022-11-05T07:04:33.685Z,9.60
2022-11-05T07:07:02.928Z,9.60
2022-11-05T07:09:30.785Z,9.60
2022-11-05T07:11:58.645Z,9.60
2022-11-05T07:14:26.520Z,9.60
2022-11-05T07:16:54.350Z,9.60
2022-11-05T07:19:22.354Z,9.60
2022-11-05T07:21:50.835Z,9.70
2022-11-05T07:24:20.060Z,9.70
2022-11-05T07:26:48.003Z,9.80
2022-11-05T07:29:15.869Z,9.80
2022-11-05T07:31:43.692Z,9.80
2022-11-05T07:34:11.472Z,9.90
2022-11-05T07:36:39.745Z,9.90
2022-11-05T07:39:07.700Z,10.00
2022-11-05T07:41:36.932Z,10.10
2022-11-05T07:44:04.858Z,10.10
2022-11-05T07:46:32.780Z,10.20
2022-11-05T07:49:00.731Z,10.30
2022-11-05T07:51:28.819Z,10.40
2022-11-05T07:53:56.652Z,10.30
2022-11-05T07:56:24.784Z,10.50
2022-11-05T07:58:53.993Z,10.60
2022-11-05T08:01:21.951Z,10.60
2022-11-05T08:03:50.162Z,10.70
2022-11-05T08:06:17.997Z,10.80
2022-11-05T08:08:45.934Z,10.90
2022-11-05T08:11:13.849Z,11.00
2022-11-05T08:13:42.690Z,11.00
2022-11-05T08:16:11.924Z,11.10
2022-11-05T08:18:40.278Z,11.20
2022-11-05T08:21:08.860Z,11.20
2022-11-05T08:23:36.873Z,11.30
2022-11-05T08:26:05.485Z,11.40
2022-11-05T08:28:33.363Z,11.50
2022-11-05T08:31:01.197Z,11.60
2022-11-05T08:33:31.270Z,11.70
2022-11-05T08:36:03.491Z,11.80
2022-11-05T08:38:31.460Z,11.90
2022-11-05T08:41:00.361Z,12.00
2022-11-05T08:43:28.436Z,12.10
2022-11-05T08:45:56.637Z,12.20
2022-11-05T08:48:24.554Z,12.20
2022-11-05T08:50:53.853Z,12.20
2022-11-05T08:53:21.810Z,12.20
2022-11-05T08:55:51.355Z,12.30
2022-11-05T08:58:20.634Z,12.20
2022-11-05T09:00:50.640Z,12.20
2022-11-05T09:03:19.156Z,12.20
2022-11-05T09:05:47.341Z,12.30
2022-11-05T09:08:18.213Z,12.20
2022-11-05T09:10:47.074Z,12.30
2022-11-05T09:13:19.485Z,12.50
2022-11-05T09:15:48.668Z,12.60
2022-11-05T09:18:17.818Z,12.80
2022-11-05T09:20:46.059Z,12.90
2022-11-05T09:23:16.950Z,12.70
2022-11-05T09:25:45.570Z,12.80
2022-11-05T09:28:17.048Z,12.80
2022-11-05T09:30:46.974Z,12.80
2022-11-05T09:33:18.131Z,12.70
2022-11-05T09:35:46.071Z,12.70
2022-11-05T09:38:14.456Z,12.70
2022-11-05T09:40:49.083Z,12.80
2022-11-05T09:43:19.935Z,13.00
2022-11-05T09:45:50.221Z,13.20
2022-11-05T09:48:22.489Z,13.30
2022-11-05T09:50:54.107Z,13.40
2022-11-05T09:53:24.259Z,13.60
2022-11-05T09:55:55.976Z,13.60
2022-11-05T09:58:35.220Z,13.50
2022-11-05T10:01:05.189Z,13.30
2022-11-05T10:03:37.419Z,13.30
2022-11-05T10:06:09.875Z,13.30
2022-11-05T10:08:42.322Z,13.40
2022-11-05T10:11:16.444Z,13.50
2022-11-05T10:13:48.002Z,13.40
2022-11-05T10:16:28.445Z,13.40
2022-11-05T10:19:02.158Z,13.60
2022-11-05T10:21:59.561Z,13.80
2022-11-05T10:24:23.535Z,13.80
2022-11-05T10:26:55.282Z,14.00
2022-11-05T10:29:29.203Z,13.90
2022-11-05T10:31:58.228Z,14.00
2022-11-05T10:34:29.755Z,14.10
2022-11-05T10:36:57.828Z,14.20
2022-11-05T10:39:27.536Z,14.40
2022-11-05T10:42:17.505Z,14.60
2022-11-05T10:44:51.207Z,14.80
2022-11-05T10:47:41.927Z,14.90
2022-11-05T10:50:12.628Z,15.20
2022-11-05T10:52:46.811Z,15.50
2022-11-05T10:55:19.619Z,15.70
2022-11-05T10:57:49.594Z,15.70
2022-11-05T11:00:22.978Z,15.60
2022-11-05T11:02:53.205Z,15.50
2022-11-05T11:05:23.857Z,15.40
2022-11-05T11:07:57.620Z,15.40
2022-11-05T11:10:27.065Z,15.50
2022-11-05T11:12:57.775Z,15.60
2022-11-05T11:15:28.475Z,15.80
2022-11-05T11:17:57.252Z,16.10
2022-11-05T11:20:28.973Z,16.20
2022-11-05T11:23:02.015Z,16.40
2022-11-05T11:25:32.315Z,16.70
2022-11-05T11:28:06.091Z,17.30
2022-11-05T11:30:35.112Z,17.80
2022-11-05T11:33:09.946Z,18.30
2022-11-05T11:35:39.935Z,18.40
2022-11-05T11:38:12.565Z,18.70
2022-11-05T11:40:40.844Z,18.90
2022-11-05T11:43:18.542Z,18.90
2022-11-05T11:45:48.936Z,18.60
2022-11-05T11:48:19.665Z,18.30
2022-11-05T11:50:49.228Z,17.80
2022-11-05T11:53:25.793Z,17.40
2022-11-05T11:56:14.004Z,17.20
2022-11-05T11:58:46.069Z,17.00
2022-11-05T12:01:57.327Z,16.70
2022-11-05T12:04:53.028Z,16.50
2022-11-05T12:07:34.351Z,16.20
2022-11-05T12:10:27.928Z,15.80
2022-11-05T12:13:06.764Z,15.50
2022-11-05T12:15:47.679Z,15.40
2022-11-05T12:18:25.991Z,15.30
2022-11-05T12:21:07.519Z,15.10
2022-11-05T12:23:51.332Z,15.10
2022-11-05T12:26:27.929Z,15.00
2022-11-05T12:29:20.578Z,14.90
2022-11-05T12:32:04.143Z,14.70
2022-11-05T12:34:49.778Z,14.70
2022-11-05T12:37:31.731Z,14.50
2022-11-05T12:40:22.094Z,14.50
2022-11-05T12:43:09.057Z,14.40
2022-11-05T12:45:48.142Z,14.30
2022-11-05T12:48:37.432Z,14.40
2022-11-05T12:51:18.896Z,14.40
2022-11-05T12:53:57.471Z,14.50
2022-11-05T12:56:32.981Z,14.90
2022-11-05T12:59:05.381Z,15.00
2022-11-05T13:01:36.979Z,15.10
2022-11-05T13:04:12.052Z,15.00
2022-11-05T13:06:43.147Z,14.80
2022-11-05T13:09:16.208Z,14.50
2022-11-05T13:11:51.790Z,14.30
2022-11-05T13:14:23.691Z,14.20
2022-11-05T13:16:54.891Z,14.30
2022-11-05T13:19:27.668Z,14.20
2022-11-05T13:22:00.783Z,14.30
2022-11-05T13:24:33.012Z,14.30
2022-11-05T13:27:06.357Z,14.30
2022-11-05T13:29:39.520Z,14.40
2022-11-05T13:32:19.072Z,14.30
2022-11-05T13:34:48.793Z,14.30
2022-11-05T13:37:43.004Z,14.30
2022-11-05T13:40:14.102Z,14.20
2022-11-05T13:43:17.786Z,14.10
2022-11-05T13:46:06.099Z,14.10
2022-11-05T13:49:01.748Z,14.20
2022-11-05T13:51:42.695Z,14.40
2022-11-05T13:54:56.474Z,14.60
2022-11-05T13:57:36.356Z,14.90
2022-11-05T14:00:13.669Z,14.80
2022-11-05T14:02:45.104Z,14.60
2022-11-05T14:05:25.285Z,14.40
2022-11-05T14:07:55.947Z,14.30
2022-11-05T14:10:37.128Z,14.10
2022-11-05T14:13:11.221Z,13.90
2022-11-05T14:15:39.221Z,13.90
2022-11-05T14:18:19.337Z,13.90
2022-11-05T14:20:59.293Z,13.80
2022-11-05T14:23:54.022Z,13.60
2022-11-05T14:26:25.481Z,13.60
2022-11-05T14:29:28.972Z,13.60
2022-11-05T14:32:11.023Z,13.50
2022-11-05T14:34:48.336Z,13.50
2022-11-05T14:37:28.736Z,13.40
2022-11-05T14:40:02.673Z,13.40
2022-11-05T14:42:31.912Z,13.30
2022-11-05T14:45:04.381Z,13.20
2022-11-05T14:47:35.235Z,13.10
2022-11-05T14:50:09.898Z,13.10
2022-11-05T14:52:39.377Z,13.10
2022-11-05T14:55:27.325Z,13.10
2022-11-05T14:58:24.658Z,13.10
2022-11-05T15:00:53.398Z,13.00
2022-11-05T15:04:12.125Z,13.00
2022-11-05T15:06:40.638Z,13.00
2022-11-05T15:09:27.702Z,12.90
2022-11-05T15:12:23.178Z,13.00
2022-11-05T15:14:56.932Z,13.00
2022-11-05T15:17:29.992Z,13.00
2022-11-05T15:20:07.910Z,12.90
2022-11-05T15:22:38.722Z,12.80
2022-11-05T15:25:15.961Z,12.70
2022-11-05T15:27:57.176Z,12.70
2022-11-05T15:30:25.920Z,12.70
2022-11-05T15:32:54.049Z,12.60
2022-11-05T15:35:26.977Z,12.60
2022-11-05T15:38:01.709Z,12.50
2022-11-05T15:40:33.037Z,12.60
2022-11-05T15:43:20.646Z,12.50
2022-11-05T15:46:06.206Z,12.60
2022-11-05T15:48:34.825Z,12.60
2022-11-05T15:51:03.240Z,12.60
2022-11-05T15:54:01.828Z,12.60
2022-11-05T15:56:25.964Z,12.60
2022-11-05T15:58:59.974Z,12.70
2022-11-05T16:01:30.433Z,12.70
2022-11-05T16:04:04.546Z,12.70
2022-11-05T16:06:40.196Z,12.60
2022-11-05T16:09:08.746Z,12.50
2022-11-05T16:11:36.756Z,12.50
2022-11-05T16:14:17.101Z,12.50
2022-11-05T16:16:45.819Z,12.50
2022-11-05T16:19:39.879Z,12.50
2022-11-05T16:22:09.039Z,12.50
2022-11-05T16:24:36.971Z,12.50
2022-11-05T16:27:08.167Z,12.50
2022-11-05T16:29:39.093Z,12.50
2022-11-05T16:32:15.625Z,12.50
2022-11-05T16:34:47.788Z,12.50
2022-11-05T16:37:18.114Z,12.50
2022-11-05T16:39:46.141Z,12.50
2022-11-05T16:42:37.334Z,12.30
2022-11-05T16:45:13.646Z,12.30
2022-11-05T16:47:41.998Z,12.30
2022-11-05T16:50:16.593Z,12.30
2022-11-05T16:52:46.132Z,12.30
2022-11-05T16:55:14.467Z,12.30
2022-11-05T16:57:44.380Z,12.30
2022-11-05T17:00:16.026Z,12.30
2022-11-05T17:02:45.068Z,12.20
2022-11-05T17:05:19.815Z,12.20
2022-11-05T17:07:47.867Z,12.20
2022-11-05T17:10:15.854Z,12.10
2022-11-05T17:12:44.390Z,12.10
2022-11-05T17:15:20.248Z,12.10
2022-11-05T17:17:48.834Z,12.10
2022-11-05T17:20:32.508Z,12.10
2022-11-05T17:23:04.610Z,12.20
2022-11-05T17:25:33.160Z,12.20
2022-11-05T17:28:00.993Z,12.10
2022-11-05T17:30:30.498Z,12.10
2022-11-05T17:32:58.435Z,12.00
2022-11-05T17:35:27.147Z,11.90
2022-11-05T17:37:55.182Z,11.80
2022-11-05T17:40:24.085Z,11.70
2022-11-05T17:42:53.151Z,11.70
2022-11-05T17:45:21.059Z,11.70
2022-11-05T17:47:50.284Z,11.60
2022-11-05T17:50:18.813Z,11.70
2022-11-05T17:52:46.904Z,11.70
2022-11-05T17:55:17.841Z,11.70
2022-11-05T17:57:47.374Z,11.70
2022-11-05T18:00:19.997Z,11.70
2022-11-05T18:02:49.445Z,11.60
2022-11-05T18:05:23.558Z,11.60
2022-11-05T18:07:51.939Z,11.60
2022-11-05T18:10:19.817Z,11.70
2022-11-05T18:12:47.741Z,11.70
2022-11-05T18:15:16.464Z,11.70
2022-11-05T18:17:45.525Z,11.70
2022-11-05T18:20:20.138Z,11.70
2022-11-05T18:22:50.822Z,11.70
2022-11-05T18:25:19.504Z,11.70
2022-11-05T18:27:47.563Z,11.50
2022-11-05T18:30:15.869Z,11.50
2022-11-05T18:32:44.496Z,11.50
2022-11-05T18:35:13.123Z,11.40
2022-11-05T18:37:42.697Z,11.50
2022-11-05T18:40:11.463Z,11.40
2022-11-05T18:42:39.355Z,11.40
2022-11-05T18:45:08.510Z,11.40
2022-11-05T18:47:36.701Z,11.40
2022-11-05T18:50:05.268Z,11.40
2022-11-05T18:52:33.339Z,11.40
2022-11-05T18:55:02.747Z,11.50
2022-11-05T18:57:30.751Z,11.50
2022-11-05T19:00:02.990Z,11.60
2022-11-05T19:02:30.884Z,11.60
2022-11-05T19:05:29.674Z,11.50
2022-11-05T19:07:46.744Z,11.50
2022-11-05T19:10:19.257Z,11.50
2022-11-05T19:12:47.092Z,11.50
2022-11-05T19:15:14.992Z,11.50
2022-11-05T19:17:42.910Z,11.50
2022-11-05T19:20:11.544Z,11.50
2022-11-05T19:22:39.437Z,11.50
2022-11-05T19:25:08.708Z,11.50
2022-11-05T19:27:38.590Z,11.50
2022-11-05T19:30:09.545Z,11.40
2022-11-05T19:32:37.412Z,11.40
2022-11-05T19:35:07.724Z,11.50
2022-11-05T19:37:35.629Z,11.50
2022-11-05T19:40:03.511Z,11.50
2022-11-05T19:42:31.518Z,11.50
2022-11-05T19:45:38.338Z,11.50
2022-11-05T19:47:56.777Z,11.40
2022-11-05T19:50:27.568Z,11.40
2022-11-05T19:52:55.474Z,11.40
2022-11-05T19:55:23.389Z,11.30
2022-11-05T19:57:51.673Z,11.30
2022-11-05T20:00:21.024Z,11.30
2022-11-05T20:02:48.982Z,11.30
2022-11-05T20:05:18.140Z,11.30
2022-11-05T20:07:52.241Z,11.30
2022-11-05T20:10:20.785Z,11.30
2022-11-05T20:12:48.779Z,11.30
2022-11-05T20:15:18.582Z,11.20
2022-11-05T20:17:51.140Z,11.20
2022-11-05T20:20:19.745Z,11.20
2022-11-05T20:22:47.652Z,11.10
2022-11-05T20:25:18.170Z,11.10
2022-11-05T20:27:46.362Z,11.10
2022-11-05T20:30:16.733Z,11.20
2022-11-05T20:32:47.535Z,11.10
2022-11-05T20:35:21.250Z,11.20
2022-11-05T20:38:02.506Z,11.10
2022-11-05T20:40:33.122Z,11.10
2022-11-05T20:43:07.613Z,11.20
2022-11-05T20:45:44.286Z,11.10
2022-11-05T20:48:15.661Z,11.00
2022-11-05T20:50:53.969Z,11.00
2022-11-05T20:53:33.330Z,11.00
2022-11-05T20:56:06.565Z,11.00
2022-11-05T20:58:36.976Z,11.00
2022-11-05T21:01:15.125Z,11.00
2022-11-05T21:03:43.321Z,10.90
2022-11-05T21:06:12.794Z,10.90
2022-11-05T21:08:41.253Z,10.80
2022-11-05T21:11:17.657Z,10.90
2022-11-05T21:13:51.753Z,10.90
2022-11-05T21:16:20.512Z,10.80
2022-11-05T21:18:49.127Z,10.80
2022-11-05T21:21:20.723Z,10.80
2022-11-05T21:23:48.837Z,10.80
2022-11-05T21:26:18.526Z,10.80
2022-11-05T21:28:46.810Z,10.80
2022-11-05T21:31:14.788Z,10.90
2022-11-05T21:33:42.828Z,10.90
2022-11-05T21:36:12.427Z,10.80
2022-11-05T21:38:42.428Z,10.80
2022-11-05T21:41:12.323Z,10.80
2022-11-05T21:43:43.067Z,10.90
2022-11-05T21:46:13.159Z,10.80
2022-11-05T21:48:42.687Z,10.80
2022-11-05T21:51:29.842Z,10.80
2022-11-05T21:54:16.453Z,10.70
2022-11-05T21:57:05.905Z,10.70
2022-11-05T21:59:48.760Z,10.70
2022-11-05T22:02:20.519Z,10.60
2022-11-05T22:04:49.950Z,10.50
2022-11-05T22:07:20.372Z,10.50
2022-11-05T22:09:50.179Z,10.50
2022-11-05T22:12:18.389Z,10.50
2022-11-05T22:14:46.391Z,10.60
2022-11-05T22:17:14.851Z,10.50
2022-11-05T22:19:43.163Z,10.50
2022-11-05T22:22:11.769Z,10.50
2022-11-05T22:24:40.270Z,10.50
2022-11-05T22:27:12.961Z,10.40
2022-11-05T22:29:41.303Z,10.40
2022-11-05T22:32:10.342Z,10.40
2022-11-05T22:34:38.583Z,10.40
2022-11-05T22:37:06.805Z,10.50
2022-11-05T22:39:34.659Z,10.50
2022-11-05T22:42:07.255Z,10.50
2022-11-05T22:44:38.401Z,10.50
2022-11-05T22:47:06.840Z,10.50
2022-11-05T22:49:35.262Z,10.50
2022-11-05T22:52:03.206Z,10.50
2022-11-05T22:54:36.394Z,10.50
2022-11-05T22:57:06.840Z,10.50
2022-11-05T22:59:34.776Z,10.50
2022-11-05T23:02:09.270Z,10.40
2022-11-05T23:04:38.177Z,10.40
2022-11-05T23:07:27.607Z,10.40
2022-11-05T23:10:14.170Z,10.30
2022-11-05T23:12:44.263Z,10.20
2022-11-05T23:15:33.210Z,10.20
2022-11-05T23:18:19.784Z,10.20
2022-11-05T23:21:07.426Z,10.20
2022-11-05T23:23:55.970Z,10.20
2022-11-05T23:26:41.335Z,10.10
2022-11-05T23:29:10.988Z,10.10
2022-11-05T23:31:56.193Z,10.10
2022-11-05T23:34:25.533Z,10.10
2022-11-05T23:37:10.610Z,10.10
2022-11-05T23:39:42.628Z,10.10
2022-11-05T23:42:28.872Z,10.10
2022-11-05T23:45:14.817Z,10.10
2022-11-05T23:48:00.725Z,10.10
2022-11-05T23:50:34.444Z,10.10
2022-11-05T23:53:06.657Z,10.00
2022-11-05T23:55:34.577Z,10.00
2022-11-05T23:58:02.430Z,10.00
